createdAt,value
2018-11-26T00:00:26.260Z,4.40
2018-11-26T00:02:54.870Z,4.40
2018-11-26T00:05:23.520Z,4.50
2018-11-26T00:07:52.159Z,4.40
2018-11-26T00:10:31.931Z,4.30
2018-11-26T00:13:00.567Z,4.30
2018-11-26T00:15:29.185Z,4.20
2018-11-26T00:17:57.837Z,4.20
2018-11-26T00:20:26.432Z,4.20
2018-11-26T00:22:55.058Z,4.10
2018-11-26T00:25:23.689Z,4.10
2018-11-26T00:27:52.406Z,4.10
2018-11-26T00:30:21.028Z,4.00
2018-11-26T00:32:49.647Z,3.90
2018-11-26T00:35:18.302Z,3.90
2018-11-26T00:37:46.938Z,3.80
2018-11-26T00:40:15.554Z,3.80
2018-11-26T00:42:44.176Z,3.80
2018-11-26T00:45:12.982Z,3.80
2018-11-26T00:47:41.616Z,3.80
2018-11-26T00:50:10.803Z,3.80
2018-11-26T00:52:40.246Z,3.80
2018-11-26T00:55:10.180Z,3.90
2018-11-26T00:57:38.839Z,3.90
2018-11-26T01:00:10.341Z,4.00
2018-11-26T01:02:38.961Z,4.00
2018-11-26T01:05:07.796Z,4.00
2018-11-26T01:07:36.435Z,4.00
2018-11-26T01:10:05.186Z,4.00
2018-11-26T01:12:33.807Z,4.10
2018-11-26T01:15:02.418Z,4.10
2018-11-26T01:17:31.072Z,4.10
2018-11-26T01:19:59.683Z,4.30
2018-11-26T01:22:28.303Z,4.20
2018-11-26T01:24:56.923Z,4.20
2018-11-26T01:27:25.561Z,4.20
2018-11-26T01:29:54.161Z,4.20
2018-11-26T01:32:22.801Z,4.20
2018-11-26T01:34:51.431Z,4.10
2018-11-26T01:37:20.042Z,4.10
2018-11-26T01:39:48.631Z,4.10
2018-11-26T01:42:17.266Z,4.10
2018-11-26T01:44:45.861Z,4.00
2018-11-26T01:47:14.495Z,4.10
2018-11-26T01:49:43.091Z,4.10
2018-11-26T01:52:11.727Z,4.10
2018-11-26T01:54:40.370Z,4.10
2018-11-26T01:57:09.032Z,4.10
2018-11-26T01:59:37.634Z,4.10
2018-11-26T02:02:06.499Z,4.10
2018-11-26T02:04:35.098Z,4.20
2018-11-26T02:07:03.770Z,4.20
2018-11-26T02:09:32.382Z,4.30
2018-11-26T02:12:01.494Z,4.20
2018-11-26T02:14:30.078Z,4.10
2018-11-26T02:16:58.717Z,4.00
2018-11-26T02:19:27.323Z,4.10
2018-11-26T02:21:55.949Z,4.10
2018-11-26T02:24:24.583Z,4.10
2018-11-26T02:26:53.194Z,4.10
2018-11-26T02:29:21.830Z,4.10
2018-11-26T02:31:50.482Z,4.10
2018-11-26T02:34:19.121Z,4.00
2018-11-26T02:36:47.745Z,4.00
2018-11-26T02:39:16.361Z,4.00
2018-11-26T02:41:44.979Z,4.00
2018-11-26T02:44:13.588Z,4.00
2018-11-26T02:46:42.242Z,4.00
2018-11-26T02:49:10.937Z,4.10
2018-11-26T02:51:39.565Z,4.10
2018-11-26T02:54:08.177Z,4.20
2018-11-26T02:56:36.832Z,4.20
2018-11-26T02:59:06.150Z,4.20
2018-11-26T03:01:34.782Z,4.10
2018-11-26T03:04:03.882Z,4.00
2018-11-26T03:06:32.490Z,4.10
2018-11-26T03:09:01.105Z,4.00
2018-11-26T03:11:29.721Z,4.00
2018-11-26T03:13:58.318Z,3.90
2018-11-26T03:16:26.930Z,3.90
2018-11-26T03:18:55.555Z,3.90
2018-11-26T03:21:24.173Z,3.90
2018-11-26T03:23:52.834Z,4.00
2018-11-26T03:26:21.450Z,3.90
2018-11-26T03:28:50.591Z,4.00
2018-11-26T03:31:19.267Z,4.00
2018-11-26T03:33:47.850Z,4.00
2018-11-26T03:36:16.469Z,4.00
2018-11-26T03:38:52.159Z,4.00
2018-11-26T03:41:21.230Z,4.00
2018-11-26T03:43:49.875Z,4.10
2018-11-26T03:46:18.537Z,4.00
2018-11-26T03:48:47.141Z,4.00
2018-11-26T03:51:15.770Z,4.10
2018-11-26T03:53:44.368Z,4.10
2018-11-26T03:56:12.998Z,4.20
2018-11-26T03:58:41.586Z,4.20
2018-11-26T04:01:10.228Z,4.20
2018-11-26T04:03:38.884Z,4.20
2018-11-26T04:06:07.541Z,4.20
2018-11-26T04:08:36.153Z,4.30
2018-11-26T04:11:05.337Z,4.30
2018-11-26T04:13:33.978Z,4.40
2018-11-26T04:16:02.678Z,4.40
2018-11-26T04:18:31.268Z,4.50
2018-11-26T04:20:59.929Z,4.50
2018-11-26T04:23:28.522Z,4.50
2018-11-26T04:25:57.169Z,4.60
2018-11-26T04:28:25.769Z,4.60
2018-11-26T04:30:54.408Z,4.50
2018-11-26T04:33:22.995Z,4.50
2018-11-26T04:35:51.608Z,4.50
2018-11-26T04:38:20.218Z,4.40
2018-11-26T04:40:48.843Z,4.40
2018-11-26T04:43:17.440Z,4.40
2018-11-26T04:45:46.094Z,4.30
2018-11-26T04:48:14.682Z,4.30
2018-11-26T04:50:44.311Z,4.30
2018-11-26T04:53:12.928Z,4.40
2018-11-26T04:55:41.540Z,4.30
2018-11-26T04:58:10.146Z,4.10
2018-11-26T05:00:38.942Z,4.10
2018-11-26T05:03:07.562Z,4.10
2018-11-26T05:05:36.194Z,4.00
2018-11-26T05:08:04.878Z,4.00
2018-11-26T05:10:33.486Z,4.00
2018-11-26T05:13:02.482Z,4.00
2018-11-26T05:15:31.114Z,4.00
2018-11-26T05:17:59.718Z,3.90
2018-11-26T05:20:28.353Z,3.90
2018-11-26T05:22:56.994Z,3.90
2018-11-26T05:25:25.661Z,3.90
2018-11-26T05:27:54.269Z,3.90
2018-11-26T05:30:22.922Z,3.90
2018-11-26T05:32:51.538Z,3.90
2018-11-26T05:35:20.179Z,3.90
2018-11-26T05:37:48.775Z,3.90
2018-11-26T05:40:17.414Z,3.80
2018-11-26T05:42:46.063Z,3.80
2018-11-26T05:45:15.782Z,3.80
2018-11-26T05:47:44.434Z,3.90
2018-11-26T05:50:14.155Z,3.90
2018-11-26T05:52:42.803Z,4.00
2018-11-26T05:55:12.556Z,4.00
2018-11-26T05:57:41.205Z,4.10
2018-11-26T06:00:25.957Z,4.10
2018-11-26T06:02:54.959Z,4.10
2018-11-26T06:05:23.566Z,4.20
2018-11-26T06:07:52.182Z,4.20
2018-11-26T06:10:20.830Z,4.30
2018-11-26T06:12:49.446Z,4.20
2018-11-26T06:15:18.150Z,4.20
2018-11-26T06:17:46.745Z,4.30
2018-11-26T06:20:15.408Z,4.30
2018-11-26T06:22:45.921Z,4.30
2018-11-26T06:25:16.680Z,4.30
2018-11-26T06:27:45.408Z,4.30
2018-11-26T06:30:15.050Z,4.40
2018-11-26T06:32:43.771Z,4.40
2018-11-26T06:35:14.649Z,4.40
2018-11-26T06:37:43.410Z,4.40
2018-11-26T06:40:12.878Z,4.40
2018-11-26T06:42:41.568Z,4.30
2018-11-26T06:45:15.675Z,4.40
2018-11-26T06:47:44.328Z,4.50
2018-11-26T06:50:13.907Z,4.50
2018-11-26T06:52:42.650Z,4.50
2018-11-26T06:55:15.420Z,4.50
2018-11-26T06:57:44.048Z,4.40
2018-11-26T07:00:16.731Z,4.40
2018-11-26T07:02:45.492Z,4.30
2018-11-26T07:05:17.157Z,4.30
2018-11-26T07:07:45.830Z,4.30
2018-11-26T07:10:14.924Z,4.20
2018-11-26T07:12:43.612Z,4.30
2018-11-26T07:15:13.603Z,4.30
2018-11-26T07:17:42.336Z,4.40
2018-11-26T07:20:13.191Z,4.40
2018-11-26T07:22:41.847Z,4.40
2018-11-26T07:25:13.380Z,4.40
2018-11-26T07:27:42.411Z,4.30
2018-11-26T07:30:15.333Z,4.30
2018-11-26T07:32:44.077Z,4.40
2018-11-26T07:35:13.199Z,4.40
2018-11-26T07:37:42.277Z,4.40
2018-11-26T07:40:13.798Z,4.40
2018-11-26T07:42:44.999Z,4.40
2018-11-26T07:45:14.280Z,4.50
2018-11-26T07:47:43.122Z,4.60
2018-11-26T07:50:15.706Z,4.60
2018-11-26T07:52:44.394Z,4.90
2018-11-26T07:55:16.149Z,5.00
2018-11-26T07:57:44.837Z,5.10
2018-11-26T08:00:15.365Z,5.20
2018-11-26T08:02:44.269Z,5.10
2018-11-26T08:05:13.990Z,5.20
2018-11-26T08:07:42.728Z,5.20
2018-11-26T08:10:13.325Z,5.10
2018-11-26T08:12:42.138Z,5.10
2018-11-26T08:15:14.732Z,5.10
2018-11-26T08:17:43.610Z,5.20
2018-11-26T08:20:12.415Z,5.20
2018-11-26T08:22:41.084Z,5.40
2018-11-26T08:25:12.722Z,5.50
2018-11-26T08:27:42.010Z,5.50
2018-11-26T08:30:14.323Z,5.60
2018-11-26T08:32:43.466Z,5.70
2018-11-26T08:35:13.537Z,5.70
2018-11-26T08:37:47.454Z,5.70
2018-11-26T08:40:24.901Z,5.70
2018-11-26T08:42:58.630Z,5.70
2018-11-26T08:45:32.841Z,5.80
2018-11-26T08:48:06.782Z,5.70
2018-11-26T08:50:35.370Z,5.70
2018-11-26T08:53:03.978Z,5.70
2018-11-26T08:55:32.611Z,5.60
2018-11-26T08:58:01.429Z,5.60
2018-11-26T09:00:30.096Z,5.60
2018-11-26T09:03:05.864Z,5.60
2018-11-26T09:05:39.809Z,5.60
2018-11-26T09:08:08.518Z,5.60
2018-11-26T09:10:37.124Z,5.60
2018-11-26T09:13:05.731Z,5.60
2018-11-26T09:15:34.341Z,5.50
2018-11-26T09:18:03.622Z,5.50
2018-11-26T09:20:32.231Z,5.60
2018-11-26T09:23:00.821Z,5.50
2018-11-26T09:25:29.434Z,5.50
2018-11-26T09:27:58.042Z,5.60
2018-11-26T09:30:26.655Z,5.50
2018-11-26T09:32:55.258Z,5.50
2018-11-26T09:35:23.910Z,5.50
2018-11-26T09:37:52.520Z,5.50
2018-11-26T09:40:21.157Z,5.40
2018-11-26T09:42:49.745Z,5.40
2018-11-26T09:45:18.798Z,5.40
2018-11-26T09:47:47.394Z,5.40
2018-11-26T09:50:20.630Z,5.30
2018-11-26T09:52:49.545Z,5.20
2018-11-26T09:55:18.238Z,5.20
2018-11-26T09:57:46.847Z,5.30
2018-11-26T10:00:16.589Z,5.30
2018-11-26T10:02:46.310Z,5.30
2018-11-26T10:05:18.063Z,5.30
2018-11-26T10:07:46.712Z,5.30
2018-11-26T10:10:15.418Z,5.30
2018-11-26T10:12:44.565Z,5.40
2018-11-26T10:15:17.290Z,5.30
2018-11-26T10:17:45.930Z,5.40
2018-11-26T10:20:14.599Z,5.40
2018-11-26T10:22:43.621Z,5.30
2018-11-26T10:25:15.137Z,5.40
2018-11-26T10:27:43.790Z,5.40
2018-11-26T10:30:18.755Z,5.40
2018-11-26T10:32:47.997Z,5.40
2018-11-26T10:35:18.242Z,5.40
2018-11-26T10:37:46.944Z,5.40
2018-11-26T10:40:21.873Z,5.40
2018-11-26T10:42:50.510Z,5.30
2018-11-26T10:45:20.928Z,5.20
2018-11-26T10:47:49.567Z,5.10
2018-11-26T10:50:19.927Z,5.20
2018-11-26T10:52:54.447Z,5.10
2018-11-26T10:55:33.530Z,5.10
2018-11-26T10:58:02.346Z,5.10
2018-11-26T11:00:36.265Z,5.10
2018-11-26T11:03:05.138Z,5.10
2018-11-26T11:05:40.266Z,5.10
2018-11-26T11:08:08.956Z,5.10
2018-11-26T11:10:37.703Z,5.00
2018-11-26T11:13:07.036Z,5.00
2018-11-26T11:15:35.938Z,5.00
2018-11-26T11:18:04.927Z,5.00
2018-11-26T11:20:33.781Z,5.00
2018-11-26T11:23:02.382Z,5.00
2018-11-26T11:25:31.037Z,5.00
2018-11-26T11:27:59.684Z,5.00
2018-11-26T11:30:29.312Z,5.00
2018-11-26T11:32:57.960Z,5.00
2018-11-26T11:35:26.584Z,5.00
2018-11-26T11:37:55.543Z,4.90
2018-11-26T11:40:28.321Z,5.00
2018-11-26T11:42:57.500Z,5.00
2018-11-26T11:45:26.580Z,4.90
2018-11-26T11:47:55.227Z,4.90
2018-11-26T11:50:23.851Z,4.90
2018-11-26T11:52:52.571Z,4.90
2018-11-26T11:55:22.261Z,4.90
2018-11-26T11:57:51.298Z,4.90
2018-11-26T12:00:37.456Z,4.90
2018-11-26T12:03:10.288Z,4.90
2018-11-26T12:05:38.944Z,4.90
2018-11-26T12:08:08.308Z,4.90
2018-11-26T12:10:37.035Z,5.00
2018-11-26T12:13:06.518Z,5.00
2018-11-26T12:15:35.600Z,4.90
2018-11-26T12:18:04.343Z,4.90
2018-11-26T12:20:32.936Z,4.90
2018-11-26T12:23:01.551Z,4.90
2018-11-26T12:25:30.171Z,4.90
2018-11-26T12:27:58.829Z,4.90
2018-11-26T12:30:28.789Z,5.00
2018-11-26T12:32:57.439Z,4.90
2018-11-26T12:35:26.088Z,4.90
2018-11-26T12:37:54.720Z,4.90
2018-11-26T12:40:24.362Z,4.90
2018-11-26T12:42:55.180Z,4.90
2018-11-26T12:45:26.829Z,4.90
2018-11-26T12:47:55.456Z,4.90
2018-11-26T12:50:24.093Z,5.00
2018-11-26T12:52:52.779Z,5.00
2018-11-26T12:55:22.242Z,5.00
2018-11-26T12:57:51.400Z,5.00
2018-11-26T13:00:24.848Z,5.00
2018-11-26T13:02:56.422Z,5.00
2018-11-26T13:05:25.056Z,5.00
2018-11-26T13:07:53.683Z,5.10
2018-11-26T13:10:23.092Z,5.00
2018-11-26T13:12:52.218Z,5.00
2018-11-26T13:15:22.024Z,5.00
2018-11-26T13:17:50.667Z,4.90
2018-11-26T13:20:21.803Z,5.00
2018-11-26T13:22:50.775Z,4.90
2018-11-26T13:25:23.460Z,4.90
2018-11-26T13:27:54.908Z,4.90
2018-11-26T13:30:24.778Z,5.00
2018-11-26T13:32:54.700Z,5.00
2018-11-26T13:35:23.301Z,4.90
2018-11-26T13:37:51.906Z,5.00
2018-11-26T13:40:20.920Z,4.90
2018-11-26T13:42:50.079Z,4.90
2018-11-26T13:45:25.807Z,4.90
2018-11-26T13:47:54.510Z,4.90
2018-11-26T13:50:27.443Z,4.90
2018-11-26T13:52:56.483Z,5.00
2018-11-26T13:55:25.104Z,5.00
2018-11-26T13:57:53.863Z,5.00
2018-11-26T14:00:22.594Z,5.00
2018-11-26T14:02:51.256Z,5.00
2018-11-26T14:05:20.156Z,5.00
2018-11-26T14:07:48.998Z,4.90
2018-11-26T14:10:22.722Z,5.00
2018-11-26T14:12:52.961Z,5.00
2018-11-26T14:15:21.592Z,5.00
2018-11-26T14:17:50.184Z,5.00
2018-11-26T14:20:18.828Z,5.00
2018-11-26T14:22:47.460Z,5.00
2018-11-26T14:25:17.203Z,5.00
2018-11-26T14:27:46.171Z,5.00
2018-11-26T14:30:18.611Z,5.00
2018-11-26T14:32:47.209Z,5.00
2018-11-26T14:35:15.883Z,5.00
2018-11-26T14:37:45.192Z,5.00
2018-11-26T14:40:18.207Z,5.10
2018-11-26T14:42:47.547Z,5.10
2018-11-26T14:45:15.552Z,5.10
2018-11-26T14:47:45.146Z,5.10
2018-11-26T14:50:14.394Z,5.10
2018-11-26T14:52:43.975Z,5.10
2018-11-26T14:55:13.959Z,5.10
2018-11-26T14:57:42.575Z,5.10
2018-11-26T15:00:14.649Z,5.30
2018-11-26T15:02:43.744Z,5.30
2018-11-26T15:05:12.230Z,5.30
2018-11-26T15:07:40.991Z,5.30
2018-11-26T15:10:13.816Z,5.30
2018-11-26T15:12:42.722Z,5.30
2018-11-26T15:15:15.323Z,5.30
2018-11-26T15:17:44.461Z,5.20
2018-11-26T15:20:14.428Z,5.20
2018-11-26T15:22:43.089Z,5.20
2018-11-26T15:25:12.979Z,5.20
2018-11-26T15:27:41.662Z,5.30
2018-11-26T15:30:13.457Z,5.20
2018-11-26T15:32:42.092Z,5.20
2018-11-26T15:35:12.160Z,5.00
2018-11-26T15:37:40.819Z,5.00
2018-11-26T15:40:10.356Z,4.90
2018-11-26T15:42:39.000Z,4.80
2018-11-26T15:45:15.710Z,4.90
2018-11-26T15:47:44.368Z,4.80
2018-11-26T15:50:13.035Z,4.90
2018-11-26T15:52:41.713Z,4.80
2018-11-26T15:55:13.310Z,4.80
2018-11-26T15:57:42.078Z,4.80
2018-11-26T16:00:20.003Z,4.90
2018-11-26T16:02:48.687Z,4.90
2018-11-26T16:05:19.432Z,4.90
2018-11-26T16:07:48.656Z,5.00
2018-11-26T16:10:17.281Z,5.00
2018-11-26T16:12:47.075Z,5.00
2018-11-26T16:15:18.927Z,4.90
2018-11-26T16:17:47.600Z,4.90
2018-11-26T16:20:17.585Z,4.90
2018-11-26T16:22:46.268Z,4.90
2018-11-26T16:25:16.308Z,4.80
2018-11-26T16:27:44.953Z,5.00
2018-11-26T16:30:15.633Z,5.00
2018-11-26T16:32:46.735Z,5.00
2018-11-26T16:35:16.717Z,5.00
2018-11-26T16:37:45.347Z,4.90
2018-11-26T16:40:15.019Z,4.90
2018-11-26T16:42:43.639Z,4.90
2018-11-26T16:45:27.824Z,4.90
2018-11-26T16:47:57.491Z,4.90
2018-11-26T16:50:30.420Z,4.80
2018-11-26T16:52:59.107Z,4.90
2018-11-26T16:55:27.732Z,4.90
2018-11-26T16:57:56.402Z,4.90
2018-11-26T17:00:28.900Z,4.80
2018-11-26T17:02:58.648Z,4.80
2018-11-26T17:05:34.912Z,4.80
2018-11-26T17:08:03.655Z,4.80
2018-11-26T17:10:32.286Z,4.70
2018-11-26T17:13:00.925Z,4.70
2018-11-26T17:15:29.544Z,4.80
2018-11-26T17:17:58.178Z,4.70
2018-11-26T17:20:26.804Z,4.80
2018-11-26T17:22:55.447Z,4.80
2018-11-26T17:25:24.053Z,4.80
2018-11-26T17:27:52.676Z,4.70
2018-11-26T17:30:22.887Z,4.80
2018-11-26T17:32:52.842Z,4.80
2018-11-26T17:35:21.455Z,4.90
2018-11-26T17:37:50.084Z,4.80
2018-11-26T17:40:20.850Z,4.80
2018-11-26T17:42:49.595Z,4.80
2018-11-26T17:45:18.704Z,4.70
2018-11-26T17:47:49.226Z,4.70
2018-11-26T17:50:24.868Z,4.60
2018-11-26T17:52:53.572Z,4.50
2018-11-26T17:55:22.211Z,4.50
2018-11-26T17:57:50.893Z,4.40
2018-11-26T18:00:29.971Z,4.40
2018-11-26T18:02:58.575Z,4.40
2018-11-26T18:05:28.623Z,4.30
2018-11-26T18:07:59.942Z,4.40
2018-11-26T18:10:28.576Z,4.50
2018-11-26T18:12:57.278Z,4.50
2018-11-26T18:15:25.941Z,4.40
2018-11-26T18:17:54.556Z,4.40
2018-11-26T18:20:23.395Z,4.40
2018-11-26T18:22:53.285Z,4.50
2018-11-26T18:25:22.661Z,4.40
2018-11-26T18:27:57.035Z,4.50
2018-11-26T18:30:28.490Z,4.50
2018-11-26T18:32:57.119Z,4.50
2018-11-26T18:35:25.750Z,4.50
2018-11-26T18:37:54.418Z,4.50
2018-11-26T18:40:23.060Z,4.50
2018-11-26T18:42:51.672Z,4.50
2018-11-26T18:45:20.503Z,4.50
2018-11-26T18:47:49.223Z,4.50
2018-11-26T18:50:19.784Z,4.40
2018-11-26T18:52:49.200Z,4.50
2018-11-26T18:55:18.019Z,4.50
2018-11-26T18:57:46.689Z,4.40
2018-11-26T19:00:31.003Z,4.50
2018-11-26T19:02:59.774Z,4.50
2018-11-26T19:05:28.394Z,4.50
2018-11-26T19:07:57.070Z,4.50
2018-11-26T19:10:34.178Z,4.40
2018-11-26T19:13:13.097Z,4.40
2018-11-26T19:15:43.187Z,4.40
2018-11-26T19:18:18.431Z,4.30
2018-11-26T19:20:47.054Z,4.40
2018-11-26T19:23:15.665Z,4.40
2018-11-26T19:25:44.673Z,4.40
2018-11-26T19:28:13.272Z,4.40
2018-11-26T19:30:41.914Z,4.40
2018-11-26T19:33:11.068Z,4.40
2018-11-26T19:35:39.701Z,4.40
2018-11-26T19:38:08.617Z,4.40
2018-11-26T19:40:38.439Z,4.30
2018-11-26T19:43:07.680Z,4.30
2018-11-26T19:45:36.775Z,4.40
2018-11-26T19:48:05.795Z,4.40
2018-11-26T19:50:34.476Z,4.30
2018-11-26T19:53:03.392Z,4.30
2018-11-26T19:55:32.056Z,4.30
2018-11-26T19:58:00.647Z,4.30
2018-11-26T20:00:30.331Z,4.30
2018-11-26T20:03:07.580Z,4.30
2018-11-26T20:05:42.146Z,4.30
2018-11-26T20:08:10.771Z,4.30
2018-11-26T20:10:39.409Z,4.20
2018-11-26T20:13:08.015Z,4.20
2018-11-26T20:15:36.677Z,4.20
2018-11-26T20:18:05.664Z,4.20
2018-11-26T20:20:34.290Z,4.10
2018-11-26T20:23:03.121Z,4.10
2018-11-26T20:25:31.735Z,4.10
2018-11-26T20:28:00.338Z,4.00
2018-11-26T20:30:28.972Z,4.00
2018-11-26T20:32:57.559Z,3.90
2018-11-26T20:35:26.204Z,3.90
2018-11-26T20:37:54.932Z,3.90
2018-11-26T20:40:23.528Z,3.80
2018-11-26T20:42:54.412Z,3.80
2018-11-26T20:45:23.087Z,3.80
2018-11-26T20:47:52.475Z,3.80
2018-11-26T20:50:28.327Z,3.70
2018-11-26T20:52:56.932Z,3.70
2018-11-26T20:55:26.242Z,3.60
2018-11-26T20:57:56.026Z,3.60
2018-11-26T21:00:26.858Z,3.50
2018-11-26T21:03:01.442Z,3.50
2018-11-26T21:05:30.176Z,3.50
2018-11-26T21:07:59.684Z,3.50
2018-11-26T21:10:28.374Z,3.50
2018-11-26T21:12:57.039Z,3.40
2018-11-26T21:15:25.723Z,3.40
2018-11-26T21:17:55.582Z,3.40
2018-11-26T21:20:26.631Z,3.40
2018-11-26T21:22:55.765Z,3.40
2018-11-26T21:25:24.416Z,3.30
2018-11-26T21:27:53.069Z,3.30
2018-11-26T21:30:21.707Z,3.30
2018-11-26T21:32:50.326Z,3.30
2018-11-26T21:35:19.761Z,3.40
2018-11-26T21:37:50.587Z,3.40
2018-11-26T21:40:22.643Z,3.40
2018-11-26T21:42:51.277Z,3.30
2018-11-26T21:45:22.215Z,3.40
2018-11-26T21:47:50.831Z,3.30
2018-11-26T21:50:19.514Z,3.30
2018-11-26T21:52:48.163Z,3.30
2018-11-26T21:55:17.748Z,3.20
2018-11-26T21:57:46.399Z,3.20
2018-11-26T22:00:19.331Z,3.20
2018-11-26T22:02:48.647Z,3.20
2018-11-26T22:05:17.371Z,3.10
2018-11-26T22:07:46.048Z,3.10
2018-11-26T22:10:17.662Z,3.10
2018-11-26T22:12:47.618Z,3.10
2018-11-26T22:15:16.257Z,3.10
2018-11-26T22:17:44.894Z,3.00
2018-11-26T22:20:28.176Z,3.10
2018-11-26T22:22:56.843Z,3.00
2018-11-26T22:25:25.524Z,3.00
2018-11-26T22:27:54.584Z,3.00
2018-11-26T22:30:27.519Z,3.00
2018-11-26T22:32:56.156Z,3.00
2018-11-26T22:35:24.823Z,3.00
2018-11-26T22:37:53.492Z,3.00
2018-11-26T22:40:23.123Z,2.90
2018-11-26T22:42:51.813Z,2.90
2018-11-26T22:45:24.852Z,3.00
2018-11-26T22:47:58.477Z,3.00
2018-11-26T22:50:27.095Z,3.00
2018-11-26T22:52:55.719Z,3.00
2018-11-26T22:55:24.351Z,3.00
2018-11-26T22:57:52.963Z,3.00
2018-11-26T23:00:25.443Z,3.00
2018-11-26T23:02:58.105Z,3.00
2018-11-26T23:05:26.955Z,3.00
2018-11-26T23:07:55.586Z,3.10
2018-11-26T23:10:24.271Z,3.00
2018-11-26T23:12:52.859Z,3.00
2018-11-26T23:15:21.479Z,2.90
2018-11-26T23:17:50.179Z,2.90
2018-11-26T23:20:19.692Z,2.90
2018-11-26T23:22:48.347Z,2.90
2018-11-26T23:25:18.211Z,2.90
2018-11-26T23:27:46.816Z,2.90
2018-11-26T23:30:24.294Z,2.80
2018-11-26T23:32:57.721Z,2.80
2018-11-26T23:35:26.364Z,2.70
2018-11-26T23:37:55.021Z,2.80
2018-11-26T23:40:23.615Z,2.70
2018-11-26T23:42:52.692Z,2.80
2018-11-26T23:45:23.610Z,2.80
2018-11-26T23:47:52.238Z,2.70
2018-11-26T23:50:20.956Z,2.80
2018-11-26T23:52:49.547Z,2.80
2018-11-26T23:55:19.115Z,2.80
2018-11-26T23:57:47.799Z,2.80
